createdAt,value
2022-12-11T00:00:15.633Z,99.06
2022-12-11T00:02:42.192Z,98.89
2022-12-11T00:05:09.295Z,99.03
2022-12-11T00:07:36.048Z,98.71
2022-12-11T00:10:02.987Z,99.00
2022-12-11T00:12:30.654Z,98.50
2022-12-11T00:14:57.303Z,98.52
2022-12-11T00:17:23.871Z,98.71
2022-12-11T00:19:50.327Z,99.29
2022-12-11T00:22:17.038Z,98.82
2022-12-11T00:24:43.465Z,99.15
2022-12-11T00:27:09.968Z,99.06
2022-12-11T00:29:36.450Z,98.75
2022-12-11T00:32:02.923Z,98.53
2022-12-11T00:34:30.152Z,98.63
2022-12-11T00:36:56.763Z,98.60
2022-12-11T00:39:23.228Z,99.29
2022-12-11T00:41:49.776Z,99.16
2022-12-11T00:44:16.303Z,99.04
2022-12-11T00:46:42.795Z,99.28
2022-12-11T00:49:09.371Z,98.74
2022-12-11T00:51:35.846Z,98.35
2022-12-11T00:54:03.274Z,98.50
2022-12-11T00:56:29.959Z,99.09
2022-12-11T00:58:56.483Z,98.39
2022-12-11T01:01:25.345Z,98.46
2022-12-11T01:03:53.619Z,98.90
2022-12-11T01:06:23.041Z,98.53
2022-12-11T01:09:09.633Z,98.38
2022-12-11T01:11:36.732Z,99.19
2022-12-11T01:14:03.999Z,98.45
2022-12-11T01:16:30.551Z,98.62
2022-12-11T01:18:57.836Z,98.38
2022-12-11T01:21:24.383Z,98.75
2022-12-11T01:23:51.644Z,98.45
2022-12-11T01:26:18.638Z,98.39
2022-12-11T01:28:45.671Z,98.57
2022-12-11T01:31:14.511Z,99.35
2022-12-11T01:33:41.491Z,98.43
2022-12-11T01:36:26.227Z,98.69
2022-12-11T01:38:54.386Z,98.88
2022-12-11T01:41:21.517Z,98.91
2022-12-11T01:44:15.450Z,99.26
2022-12-11T01:46:43.171Z,99.37
2022-12-11T01:49:13.792Z,98.36
2022-12-11T01:51:51.702Z,99.01
2022-12-11T01:54:20.167Z,98.78
2022-12-11T01:56:49.211Z,99.17
2022-12-11T01:59:19.900Z,98.75
2022-12-11T02:01:54.715Z,99.27
2022-12-11T02:04:21.599Z,98.57
2022-12-11T02:06:51.848Z,98.85
2022-12-11T02:09:29.979Z,98.58
2022-12-11T02:12:25.447Z,98.75
2022-12-11T02:15:33.391Z,98.99
2022-12-11T02:18:07.777Z,98.87
2022-12-11T02:20:42.042Z,98.78
2022-12-11T02:23:42.375Z,98.51
2022-12-11T02:26:17.976Z,98.77
2022-12-11T02:28:49.635Z,99.10
2022-12-11T02:31:29.042Z,99.44
2022-12-11T02:34:09.648Z,98.93
2022-12-11T02:36:40.202Z,98.60
2022-12-11T02:39:10.400Z,98.68
2022-12-11T02:41:37.735Z,98.64
2022-12-11T02:44:05.180Z,98.61
2022-12-11T02:46:34.790Z,98.99
2022-12-11T02:49:05.830Z,98.94
2022-12-11T02:51:36.402Z,99.03
2022-12-11T02:54:04.451Z,99.12
2022-12-11T02:56:38.155Z,99.19
2022-12-11T02:59:11.158Z,99.05
2022-12-11T03:01:38.036Z,98.27
2022-12-11T03:04:04.635Z,99.15
2022-12-11T03:06:42.314Z,98.32
2022-12-11T03:09:08.839Z,98.03
2022-12-11T03:11:35.371Z,98.95
2022-12-11T03:14:03.064Z,98.79
2022-12-11T03:16:42.938Z,98.89
2022-12-11T03:19:13.050Z,98.48
2022-12-11T03:21:49.183Z,98.34
2022-12-11T03:24:38.366Z,97.82
2022-12-11T03:27:29.362Z,98.57
2022-12-11T03:30:02.223Z,98.11
2022-12-11T03:32:38.603Z,98.30
2022-12-11T03:35:14.867Z,97.95
2022-12-11T03:37:44.684Z,97.92
2022-12-11T03:40:16.207Z,97.74
2022-12-11T03:42:45.831Z,98.33
2022-12-11T03:45:14.317Z,98.23
2022-12-11T03:47:43.283Z,98.09
2022-12-11T03:50:12.342Z,98.37
2022-12-11T03:52:45.809Z,98.17
2022-12-11T03:55:14.980Z,98.17
2022-12-11T03:57:41.595Z,98.11
2022-12-11T04:00:12.197Z,97.87
2022-12-11T04:02:38.968Z,98.09
2022-12-11T04:05:05.967Z,97.95
2022-12-11T04:07:32.451Z,97.82
2022-12-11T04:09:59.034Z,98.25
2022-12-11T04:12:25.761Z,98.03
2022-12-11T04:15:04.328Z,97.44
2022-12-11T04:17:54.811Z,97.65
2022-12-11T04:20:40.361Z,97.23
2022-12-11T04:23:30.815Z,97.32
2022-12-11T04:26:15.897Z,97.89
2022-12-11T04:28:43.870Z,98.13
2022-12-11T04:31:20.050Z,97.62
2022-12-11T04:33:47.239Z,97.67
2022-12-11T04:36:13.968Z,97.54
2022-12-11T04:38:40.703Z,97.28
2022-12-11T04:41:12.012Z,97.56
2022-12-11T04:43:39.656Z,97.26
2022-12-11T04:46:17.357Z,97.26
2022-12-11T04:48:44.747Z,97.58
2022-12-11T04:51:11.652Z,97.40
2022-12-11T04:53:38.503Z,97.54
2022-12-11T04:56:06.426Z,96.89
2022-12-11T04:58:33.092Z,96.66
2022-12-11T05:00:59.570Z,96.71
2022-12-11T05:03:26.166Z,97.37
2022-12-11T05:05:53.795Z,97.20
2022-12-11T05:08:21.264Z,96.50
2022-12-11T05:11:03.411Z,97.24
2022-12-11T05:13:30.763Z,96.46
2022-12-11T05:15:58.297Z,96.43
2022-12-11T05:18:25.403Z,96.34
2022-12-11T05:21:00.330Z,97.10
2022-12-11T05:23:27.269Z,96.23
2022-12-11T05:25:58.759Z,96.27
2022-12-11T05:28:26.680Z,96.39
2022-12-11T05:31:05.019Z,96.68
2022-12-11T05:33:32.197Z,96.51
2022-12-11T05:35:58.841Z,96.08
2022-12-11T05:38:25.488Z,96.58
2022-12-11T05:41:07.205Z,96.31
2022-12-11T05:43:35.620Z,96.05
2022-12-11T05:46:10.197Z,96.79
2022-12-11T05:48:37.897Z,96.63
2022-12-11T05:51:04.999Z,96.80
2022-12-11T05:53:31.702Z,96.30
2022-12-11T05:56:03.152Z,96.15
2022-12-11T05:58:30.224Z,95.69
2022-12-11T06:00:56.726Z,95.94
2022-12-11T06:03:23.187Z,96.20
2022-12-11T06:05:49.659Z,95.82
2022-12-11T06:08:16.212Z,95.84
2022-12-11T06:10:46.988Z,95.33
2022-12-11T06:13:14.069Z,95.55
2022-12-11T06:15:40.884Z,95.43
2022-12-11T06:18:07.450Z,95.95
2022-12-11T06:20:35.251Z,95.48
2022-12-11T06:23:02.372Z,95.05
2022-12-11T06:25:29.714Z,94.96
2022-12-11T06:27:56.704Z,95.21
2022-12-11T06:30:23.512Z,95.34
2022-12-11T06:33:05.340Z,94.85
2022-12-11T06:35:31.846Z,95.02
2022-12-11T06:37:58.963Z,94.99
2022-12-11T06:40:25.496Z,95.69
2022-12-11T06:42:51.993Z,95.22
2022-12-11T06:45:18.469Z,95.16
2022-12-11T06:47:44.998Z,95.50
2022-12-11T06:50:11.569Z,94.95
2022-12-11T06:52:38.107Z,95.62
2022-12-11T06:55:05.116Z,94.71
2022-12-11T06:57:31.578Z,94.99
2022-12-11T06:59:58.067Z,94.74
2022-12-11T07:02:24.592Z,94.67
2022-12-11T07:04:55.083Z,94.66
2022-12-11T07:07:21.907Z,94.63
2022-12-11T07:09:48.429Z,94.39
2022-12-11T07:12:14.903Z,94.38
2022-12-11T07:14:41.377Z,94.65
2022-12-11T07:17:07.935Z,94.70
2022-12-11T07:19:34.559Z,94.38
2022-12-11T07:22:01.031Z,94.38
2022-12-11T07:24:27.703Z,94.76
2022-12-11T07:26:54.226Z,94.44
2022-12-11T07:29:20.700Z,94.74
2022-12-11T07:31:47.319Z,93.91
2022-12-11T07:34:14.149Z,94.48
2022-12-11T07:36:41.091Z,94.20
2022-12-11T07:39:09.000Z,93.97
2022-12-11T07:41:35.718Z,94.62
2022-12-11T07:44:02.942Z,94.49
2022-12-11T07:46:31.759Z,94.33
2022-12-11T07:49:00.834Z,94.27
2022-12-11T07:51:30.535Z,93.35
2022-12-11T07:54:02.544Z,93.47
2022-12-11T07:56:29.834Z,93.71
2022-12-11T07:59:00.391Z,93.25
2022-12-11T08:01:28.911Z,93.87
2022-12-11T08:03:55.776Z,93.45
2022-12-11T08:06:28.660Z,93.58
2022-12-11T08:08:56.597Z,93.14
2022-12-11T08:11:23.689Z,93.27
2022-12-11T08:13:50.301Z,93.18
2022-12-11T08:16:17.683Z,93.24
2022-12-11T08:18:45.712Z,93.61
2022-12-11T08:21:26.089Z,93.16
2022-12-11T08:23:53.662Z,93.39
2022-12-11T08:26:31.631Z,93.27
2022-12-11T08:28:59.315Z,93.73
2022-12-11T08:31:29.027Z,92.85
2022-12-11T08:33:56.903Z,93.26
2022-12-11T08:36:24.771Z,92.98
2022-12-11T08:38:52.045Z,92.72
2022-12-11T08:41:22.073Z,93.35
2022-12-11T08:43:48.836Z,92.52
2022-12-11T08:46:16.118Z,93.54
2022-12-11T08:48:43.354Z,92.58
2022-12-11T08:51:15.659Z,92.88
2022-12-11T08:53:42.802Z,93.19
2022-12-11T08:56:12.574Z,93.59
2022-12-11T08:58:39.097Z,93.00
2022-12-11T09:01:14.187Z,93.14
2022-12-11T09:03:45.306Z,92.22
2022-12-11T09:06:15.079Z,92.97
2022-12-11T09:08:46.008Z,92.25
2022-12-11T09:11:16.555Z,92.35
2022-12-11T09:13:43.676Z,92.15
2022-12-11T09:16:13.205Z,92.42
2022-12-11T09:18:40.599Z,92.31
2022-12-11T09:21:16.353Z,91.92
2022-12-11T09:23:43.425Z,92.75
2022-12-11T09:26:14.507Z,92.62
2022-12-11T09:28:46.301Z,91.94
2022-12-11T09:31:18.073Z,91.63
2022-12-11T09:33:44.937Z,91.97
2022-12-11T09:36:12.179Z,92.17
2022-12-11T09:38:39.037Z,91.82
2022-12-11T09:41:20.899Z,91.04
2022-12-11T09:44:01.653Z,91.03
2022-12-11T09:46:33.769Z,91.23
2022-12-11T09:49:03.396Z,91.15
2022-12-11T09:51:50.262Z,90.84
2022-12-11T09:54:19.612Z,91.32
2022-12-11T09:56:51.300Z,91.26
2022-12-11T09:59:42.606Z,91.66
2022-12-11T10:02:18.995Z,90.59
2022-12-11T10:05:15.735Z,90.46
2022-12-11T10:07:48.143Z,90.07
2022-12-11T10:10:14.652Z,91.13
2022-12-11T10:12:59.820Z,90.73
2022-12-11T10:15:43.172Z,89.68
2022-12-11T10:18:36.473Z,90.02
2022-12-11T10:21:04.210Z,89.40
2022-12-11T10:23:54.039Z,89.57
2022-12-11T10:26:25.072Z,89.85
2022-12-11T10:28:51.993Z,90.18
2022-12-11T10:31:22.950Z,89.82
2022-12-11T10:33:54.652Z,89.34
2022-12-11T10:36:28.052Z,89.35
2022-12-11T10:38:55.132Z,89.54
2022-12-11T10:41:24.687Z,89.59
2022-12-11T10:43:53.276Z,89.14
2022-12-11T10:46:24.340Z,89.71
2022-12-11T10:48:54.817Z,89.68
2022-12-11T10:51:24.879Z,89.28
2022-12-11T10:53:58.149Z,90.05
2022-12-11T10:56:29.637Z,89.77
2022-12-11T10:58:57.732Z,89.87
2022-12-11T11:01:35.897Z,89.70
2022-12-11T11:04:06.935Z,90.24
2022-12-11T11:06:34.034Z,89.57
2022-12-11T11:10:01.221Z,89.95
2022-12-11T11:12:27.895Z,89.78
2022-12-11T11:15:44.445Z,89.64
2022-12-11T11:18:26.408Z,89.43
2022-12-11T11:20:53.756Z,90.11
2022-12-11T11:23:24.613Z,90.30
2022-12-11T11:25:58.039Z,89.50
2022-12-11T11:28:30.822Z,89.95
2022-12-11T11:31:02.549Z,90.00
2022-12-11T11:33:31.418Z,90.06
2022-12-11T11:36:03.934Z,90.47
2022-12-11T11:38:58.890Z,89.67
2022-12-11T11:41:31.665Z,90.33
2022-12-11T11:44:03.259Z,90.06
2022-12-11T11:46:44.593Z,89.47
2022-12-11T11:49:23.256Z,90.04
2022-12-11T11:52:03.527Z,89.51
2022-12-11T11:54:37.870Z,89.20
2022-12-11T11:58:02.422Z,89.72
2022-12-11T12:00:33.557Z,89.60
2022-12-11T12:03:13.905Z,89.86
2022-12-11T12:06:10.945Z,89.55
2022-12-11T12:08:57.901Z,89.94
2022-12-11T12:11:52.846Z,90.00
2022-12-11T12:14:55.260Z,90.51
2022-12-11T12:17:36.041Z,89.95
2022-12-11T12:20:23.347Z,89.36
2022-12-11T12:23:46.519Z,90.03
2022-12-11T12:26:26.721Z,90.00
2022-12-11T12:29:18.407Z,89.41
2022-12-11T12:32:02.326Z,88.89
2022-12-11T12:34:42.035Z,88.69
2022-12-11T12:37:15.008Z,89.24
2022-12-11T12:40:03.359Z,89.61
2022-12-11T12:42:51.147Z,89.27
2022-12-11T12:45:22.604Z,88.93
2022-12-11T12:47:53.381Z,88.96
2022-12-11T12:50:23.694Z,88.78
2022-12-11T12:52:53.133Z,89.40
2022-12-11T12:55:24.335Z,89.23
2022-12-11T12:58:12.958Z,89.43
2022-12-11T13:00:42.283Z,89.63
2022-12-11T13:03:31.600Z,89.29
2022-12-11T13:06:11.745Z,89.40
2022-12-11T13:08:46.842Z,89.77
2022-12-11T13:11:16.177Z,89.48
2022-12-11T13:13:51.584Z,89.49
2022-12-11T13:16:21.147Z,89.63
2022-12-11T13:18:48.468Z,89.09
2022-12-11T13:21:38.127Z,89.54
2022-12-11T13:24:20.016Z,89.74
2022-12-11T13:26:48.001Z,89.63
2022-12-11T13:29:32.429Z,90.04
2022-12-11T13:32:21.329Z,89.59
2022-12-11T13:34:55.448Z,89.80
2022-12-11T13:37:24.566Z,90.13
2022-12-11T13:39:52.347Z,90.02
2022-12-11T13:42:27.712Z,90.11
2022-12-11T13:44:54.508Z,90.04
2022-12-11T13:47:21.722Z,89.85
2022-12-11T13:49:56.734Z,89.71
2022-12-11T13:55:34.720Z,89.43
2022-12-11T13:58:01.464Z,90.41
2022-12-11T14:00:32.910Z,90.24
2022-12-11T14:03:04.735Z,90.13
2022-12-11T14:05:31.551Z,89.45
2022-12-11T14:08:02.792Z,90.46
2022-12-11T14:10:32.819Z,89.81
2022-12-11T14:12:59.270Z,89.86
2022-12-11T14:15:28.028Z,90.17
2022-12-11T14:17:55.539Z,89.92
2022-12-11T14:20:25.442Z,90.69
2022-12-11T14:22:52.038Z,90.21
2022-12-11T14:25:21.753Z,90.10
2022-12-11T14:27:50.907Z,90.90
2022-12-11T14:30:25.893Z,90.80
2022-12-11T14:32:58.271Z,90.54
2022-12-11T14:35:27.575Z,90.80
2022-12-11T14:37:54.385Z,91.17
2022-12-11T14:40:27.412Z,90.99
2022-12-11T14:43:01.119Z,90.98
2022-12-11T14:45:39.322Z,91.08
2022-12-11T14:48:22.162Z,91.31
2022-12-11T14:50:52.770Z,91.25
2022-12-11T14:53:31.312Z,91.45
2022-12-11T14:56:02.910Z,91.29
2022-12-11T14:58:30.619Z,91.67
2022-12-11T15:01:06.398Z,90.94
2022-12-11T15:03:35.551Z,91.65
2022-12-11T15:06:03.575Z,90.91
2022-12-11T15:08:33.575Z,91.17
2022-12-11T15:11:18.877Z,91.18
2022-12-11T15:13:51.391Z,91.25
2022-12-11T15:16:18.914Z,91.33
2022-12-11T15:18:50.962Z,90.52
2022-12-11T15:21:39.228Z,91.18
2022-12-11T15:24:07.086Z,90.89
2022-12-11T15:26:37.398Z,91.56
2022-12-11T15:29:24.830Z,91.10
2022-12-11T15:32:10.581Z,91.91
2022-12-11T15:34:46.219Z,91.17
2022-12-11T15:37:33.087Z,92.10
2022-12-11T15:40:01.682Z,91.46
2022-12-11T15:42:39.763Z,92.33
2022-12-11T15:45:09.174Z,91.74
2022-12-11T15:47:35.918Z,92.27
2022-12-11T15:50:15.423Z,91.74
2022-12-11T15:52:41.850Z,91.56
2022-12-11T15:55:09.231Z,91.63
2022-12-11T15:57:36.906Z,91.59
2022-12-11T16:00:06.495Z,91.59
2022-12-11T16:02:33.536Z,91.90
2022-12-11T16:04:59.992Z,91.77
2022-12-11T16:07:26.691Z,91.41
2022-12-11T16:09:53.615Z,91.39
2022-12-11T16:12:21.561Z,92.17
2022-12-11T16:14:48.124Z,91.95
2022-12-11T16:17:15.555Z,91.54
2022-12-11T16:19:43.648Z,91.73
2022-12-11T16:22:12.374Z,90.88
2022-12-11T16:24:40.214Z,91.06
2022-12-11T16:27:07.814Z,91.24
2022-12-11T16:29:35.883Z,91.45
2022-12-11T16:32:02.386Z,91.51
2022-12-11T16:34:28.890Z,91.54
2022-12-11T16:36:58.088Z,90.96
2022-12-11T16:39:25.061Z,91.04
2022-12-11T16:41:51.530Z,90.61
2022-12-11T16:44:20.656Z,90.50
2022-12-11T16:46:47.864Z,90.75
2022-12-11T16:49:14.757Z,90.24
2022-12-11T16:51:41.952Z,90.34
2022-12-11T16:54:09.252Z,91.10
2022-12-11T16:56:36.308Z,90.61
2022-12-11T16:59:03.487Z,90.26
2022-12-11T17:01:30.425Z,90.81
2022-12-11T17:03:57.263Z,90.99
2022-12-11T17:06:23.931Z,90.48
2022-12-11T17:08:50.518Z,90.57
2022-12-11T17:11:20.998Z,90.08
2022-12-11T17:13:48.027Z,90.47
2022-12-11T17:16:16.234Z,90.42
2022-12-11T17:18:43.564Z,90.60
2022-12-11T17:21:15.570Z,90.35
2022-12-11T17:23:42.709Z,90.17
2022-12-11T17:26:09.779Z,91.07
2022-12-11T17:28:37.270Z,90.67
2022-12-11T17:31:08.186Z,90.22
2022-12-11T17:33:35.405Z,90.48
2022-12-11T17:36:04.345Z,90.57
2022-12-11T17:38:31.405Z,90.94
2022-12-11T17:40:58.298Z,90.43
2022-12-11T17:43:25.019Z,90.46
2022-12-11T17:45:55.339Z,90.28
2022-12-11T17:48:24.941Z,90.88
2022-12-11T17:50:52.745Z,90.49
2022-12-11T17:53:21.079Z,91.11
2022-12-11T17:55:48.502Z,90.79
2022-12-11T17:58:17.475Z,90.85
2022-12-11T18:00:46.189Z,90.92
2022-12-11T18:03:13.240Z,90.59
2022-12-11T18:05:47.678Z,90.83
2022-12-11T18:08:17.305Z,90.29
2022-12-11T18:10:44.022Z,90.49
2022-12-11T18:13:12.172Z,91.65
2022-12-11T18:15:39.637Z,91.24
2022-12-11T18:18:07.187Z,91.54
2022-12-11T18:20:35.118Z,90.97
2022-12-11T18:23:02.006Z,91.45
2022-12-11T18:25:28.678Z,91.32
2022-12-11T18:27:55.495Z,91.21
2022-12-11T18:30:22.802Z,90.86
2022-12-11T18:32:49.864Z,90.85
2022-12-11T18:35:17.399Z,90.90
2022-12-11T18:37:45.193Z,91.29
2022-12-11T18:40:14.506Z,91.00
2022-12-11T18:42:41.210Z,91.57
2022-12-11T18:45:08.362Z,91.94
2022-12-11T18:47:35.453Z,91.70
2022-12-11T18:50:07.328Z,91.89
2022-12-11T18:52:34.927Z,90.86
2022-12-11T18:55:01.652Z,90.12
2022-12-11T18:57:28.406Z,90.46
2022-12-11T18:59:55.156Z,89.94
2022-12-11T19:02:22.219Z,90.04
2022-12-11T19:04:48.880Z,89.97
2022-12-11T19:07:15.547Z,89.54
2022-12-11T19:09:47.651Z,88.89
2022-12-11T19:12:14.741Z,88.76
2022-12-11T19:14:41.431Z,88.63
2022-12-11T19:17:07.889Z,88.45
2022-12-11T19:19:35.930Z,88.41
2022-12-11T19:22:03.057Z,88.30
2022-12-11T19:24:29.749Z,88.48
2022-12-11T19:26:56.378Z,88.36
2022-12-11T19:29:27.775Z,88.16
2022-12-11T19:31:55.587Z,87.78
2022-12-11T19:34:23.561Z,87.81
2022-12-11T19:36:50.256Z,86.89
2022-12-11T19:39:17.561Z,87.58
2022-12-11T19:41:44.023Z,88.08
2022-12-11T19:44:10.555Z,87.26
2022-12-11T19:46:38.248Z,87.04
2022-12-11T19:49:05.525Z,87.26
2022-12-11T19:51:36.390Z,86.79
2022-12-11T19:54:03.097Z,87.45
2022-12-11T19:56:29.985Z,87.07
2022-12-11T19:58:57.047Z,87.06
2022-12-11T20:01:30.907Z,87.21
2022-12-11T20:04:03.477Z,87.52
2022-12-11T20:06:31.734Z,87.00
2022-12-11T20:08:58.400Z,86.20
2022-12-11T20:11:25.440Z,86.08
2022-12-11T20:13:52.071Z,86.76
2022-12-11T20:16:28.923Z,86.29
2022-12-11T20:19:08.312Z,86.50
2022-12-11T20:21:34.851Z,87.39
2022-12-11T20:24:01.355Z,86.59
2022-12-11T20:26:29.507Z,87.03
2022-12-11T20:28:57.138Z,87.23
2022-12-11T20:31:26.090Z,87.21
2022-12-11T20:33:53.295Z,87.11
2022-12-11T20:36:21.731Z,86.76
2022-12-11T20:38:49.144Z,87.17
2022-12-11T20:41:19.398Z,87.16
2022-12-11T20:43:46.983Z,87.04
2022-12-11T20:46:15.769Z,86.87
2022-12-11T20:48:44.556Z,87.05
2022-12-11T20:51:13.925Z,87.78
2022-12-11T20:53:40.408Z,87.26
2022-12-11T20:56:19.562Z,87.42
2022-12-11T20:58:46.420Z,87.69
2022-12-11T21:01:18.643Z,88.44
2022-12-11T21:03:45.219Z,87.54
2022-12-11T21:06:25.715Z,88.30
2022-12-11T21:08:53.375Z,87.96
2022-12-11T21:11:20.325Z,86.92
2022-12-11T21:13:50.470Z,87.39
2022-12-11T21:16:18.250Z,86.99
2022-12-11T21:18:46.555Z,87.07
2022-12-11T21:21:14.142Z,87.42
2022-12-11T21:23:40.946Z,86.78
2022-12-11T21:26:07.546Z,86.81
2022-12-11T21:28:35.715Z,86.93
2022-12-11T21:31:06.364Z,86.74
2022-12-11T21:33:35.973Z,87.22
2022-12-11T21:36:05.715Z,87.82
2022-12-11T21:38:33.401Z,87.24
2022-12-11T21:41:10.568Z,87.70
2022-12-11T21:43:43.358Z,87.06
2022-12-11T21:46:27.685Z,87.48
2022-12-11T21:48:54.432Z,87.07
2022-12-11T21:51:28.615Z,86.58
2022-12-11T21:53:57.564Z,86.55
2022-12-11T21:56:25.546Z,87.39
2022-12-11T21:58:53.663Z,86.79
2022-12-11T22:01:30.625Z,87.75
2022-12-11T22:03:59.255Z,87.30
2022-12-11T22:06:25.846Z,87.29
2022-12-11T22:08:52.747Z,87.99
2022-12-11T22:11:23.131Z,88.10
2022-12-11T22:13:50.085Z,87.97
2022-12-11T22:16:16.722Z,88.36
2022-12-11T22:18:43.534Z,87.72
2022-12-11T22:21:10.596Z,87.91
2022-12-11T22:23:38.247Z,87.26
2022-12-11T22:26:06.760Z,87.48
2022-12-11T22:28:33.228Z,88.09
2022-12-11T22:31:00.099Z,87.57
2022-12-11T22:33:27.291Z,87.48
2022-12-11T22:35:58.030Z,87.65
2022-12-11T22:38:24.998Z,87.99
2022-12-11T22:40:52.771Z,87.86
2022-12-11T22:43:19.907Z,88.31
2022-12-11T22:45:46.582Z,88.02
2022-12-11T22:48:13.115Z,88.15
2022-12-11T22:50:40.082Z,88.42
2022-12-11T22:53:06.700Z,88.69
2022-12-11T22:55:34.051Z,88.40
2022-12-11T22:58:00.499Z,88.04
2022-12-11T23:00:26.977Z,88.61
2022-12-11T23:02:53.610Z,89.00
2022-12-11T23:05:20.097Z,88.42
2022-12-11T23:07:46.702Z,88.56
2022-12-11T23:10:16.975Z,88.85
2022-12-11T23:12:43.457Z,88.56
2022-12-11T23:15:11.231Z,88.94
2022-12-11T23:17:37.901Z,89.02
2022-12-11T23:20:05.887Z,88.73
2022-12-11T23:22:33.291Z,88.67
2022-12-11T23:24:59.749Z,89.34
2022-12-11T23:27:26.197Z,88.76
2022-12-11T23:29:52.677Z,89.13
2022-12-11T23:32:19.221Z,88.63
2022-12-11T23:34:45.706Z,89.30
2022-12-11T23:37:12.448Z,89.05
2022-12-11T23:39:38.982Z,89.25
2022-12-11T23:42:05.713Z,89.11
2022-12-11T23:44:32.207Z,88.84
2022-12-11T23:46:58.680Z,88.71
2022-12-11T23:49:25.167Z,88.82
2022-12-11T23:51:54.259Z,89.49
2022-12-11T23:54:20.727Z,88.65
2022-12-11T23:56:47.643Z,88.95
2022-12-11T23:59:15.122Z,88.89
